Time;durP1;ratioP1;P1;durP2;ratioP2;P2;SDS_P1;SDS_P2;PMS_P1;PMS_P2;Temp;Humidity;BMP_temperature;BMP_pressure;BME280_temperature;BME280_humidity;BME280_pressure;Samples;Min_cycle;Max_cycle;Signal;HPM_P1;HPM_P2
2021/05/09 00:01:21;;;;;;;6.20;3.57;;;16.10;1.00;;;;;;5075196;28;20222;-79
2021/05/09 00:03:48;;;;;;;7.60;3.43;;;16.10;1.00;;;;;;5073552;28;20630;-82
2021/05/09 00:06:16;;;;;;;7.40;3.90;;;16.10;1.00;;;;;;5073627;28;20222;-82
2021/05/09 00:08:42;;;;;;;9.57;4.20;;;16.20;1.00;;;;;;5074839;28;20257;-81
2021/05/09 00:11:08;;;;;;;7.23;3.50;;;16.00;1.00;;;;;;5074651;28;20196;-80
2021/05/09 00:13:34;;;;;;;5.97;3.37;;;16.10;1.00;;;;;;5074883;28;20169;-80
2021/05/09 00:16:00;;;;;;;6.83;3.60;;;16.10;1.00;;;;;;5073381;28;20187;-81
2021/05/09 00:18:26;;;;;;;6.97;3.53;;;16.00;1.00;;;;;;5074800;28;20524;-81
2021/05/09 00:20:56;;;;;;;8.50;4.03;;;15.90;1.00;;;;;;5073194;28;20638;-80
2021/05/09 00:23:22;;;;;;;7.27;3.90;;;15.90;1.00;;;;;;5074554;28;20253;-80
2021/05/09 00:25:50;;;;;;;8.30;4.23;;;16.10;1.00;;;;;;5074120;28;20207;-81
2021/05/09 00:28:16;;;;;;;7.60;4.07;;;16.00;1.00;;;;;;5074696;28;20308;-81
2021/05/09 00:30:41;;;;;;;9.53;4.63;;;16.00;1.00;;;;;;5074451;28;20230;-79
2021/05/09 00:33:07;;;;;;;7.87;4.60;;;16.00;1.00;;;;;;5074195;28;20194;-79
2021/05/09 00:35:33;;;;;;;9.33;4.30;;;16.00;1.00;;;;;;5074253;28;20167;-80
2021/05/09 00:37:59;;;;;;;7.33;4.63;;;15.90;1.00;;;;;;5074298;28;20164;-81
2021/05/09 00:40:24;;;;;;;8.33;4.60;;;15.80;1.00;;;;;;5072561;28;20204;-78
2021/05/09 00:42:54;;;;;;;7.70;4.60;;;15.80;1.00;;;;;;5074197;28;20225;-80
2021/05/09 00:45:19;;;;;;;11.77;5.03;;;15.80;1.00;;;;;;5074025;28;20209;-82
2021/05/09 00:47:48;;;;;;;8.70;4.77;;;15.90;1.00;;;;;;5074178;28;20587;-80
2021/05/09 00:50:14;;;;;;;8.47;4.17;;;15.80;1.00;;;;;;5073776;28;20514;-79
2021/05/09 00:52:43;;;;;;;8.33;4.77;;;15.80;1.00;;;;;;5073954;28;20510;-80
2021/05/09 00:55:11;;;;;;;8.73;4.40;;;15.80;1.00;;;;;;5073930;28;20168;-82
2021/05/09 00:57:37;;;;;;;8.70;4.63;;;15.80;1.00;;;;;;5074000;28;20202;-81
2021/05/09 01:00:07;;;;;;;10.27;5.43;;;15.80;1.00;;;;;;5073723;28;20166;-82
2021/05/09 01:02:35;;;;;;;10.83;4.73;;;15.70;1.00;;;;;;5073621;28;20701;-80
2021/05/09 01:05:03;;;;;;;10.87;4.87;;;15.70;1.00;;;;;;5073448;28;20187;-79
2021/05/09 01:07:29;;;;;;;9.77;5.00;;;15.70;1.00;;;;;;5072456;28;20211;-78
2021/05/09 01:09:55;;;;;;;7.67;4.70;;;15.70;1.00;;;;;;5073634;28;20164;-81
2021/05/09 01:12:21;;;;;;;7.57;4.50;;;15.70;1.00;;;;;;5073914;28;20201;-80
2021/05/09 01:14:46;;;;;;;9.90;5.07;;;15.70;1.00;;;;;;5073771;28;20169;-81
2021/05/09 01:17:12;;;;;;;12.87;4.60;;;15.70;1.00;;;;;;5073637;28;20245;-81
2021/05/09 01:19:39;;;;;;;8.57;4.33;;;15.60;1.00;;;;;;5072496;28;20172;-81
2021/05/09 01:22:09;;;;;;;6.53;3.93;;;15.60;1.00;;;;;;5072004;28;20659;-82
2021/05/09 01:24:35;;;;;;;7.43;3.97;;;15.60;1.00;;;;;;5071964;28;20604;-81
2021/05/09 01:27:05;;;;;;;6.90;3.83;;;15.60;1.00;;;;;;5073493;28;20254;-79
2021/05/09 01:29:32;;;;;;;6.27;3.43;;;15.60;1.00;;;;;;5073452;28;20165;-80
2021/05/09 01:31:58;;;;;;;8.27;3.73;;;15.60;1.00;;;;;;5073139;28;20184;-79
2021/05/09 01:34:26;;;;;;;7.07;3.60;;;15.60;1.00;;;;;;5073405;28;20254;-79
2021/05/09 01:36:51;;;;;;;7.47;3.63;;;15.60;1.00;;;;;;5073501;28;20709;-80
2021/05/09 01:39:17;;;;;;;5.83;3.47;;;15.70;1.00;;;;;;5071878;28;20170;-77
2021/05/09 01:41:43;;;;;;;5.70;3.50;;;15.70;1.00;;;;;;5073018;28;20279;-81
2021/05/09 01:44:08;;;;;;;5.63;2.97;;;15.60;1.00;;;;;;5073214;28;20189;-79
2021/05/09 01:46:34;;;;;;;7.53;3.20;;;15.70;1.00;;;;;;5071823;28;20212;-81
2021/05/09 01:49:00;;;;;;;7.30;3.40;;;15.70;1.00;;;;;;5073290;28;20249;-79
2021/05/09 01:51:26;;;;;;;7.90;4.80;;;15.70;1.00;;;;;;5072924;28;20183;-80
2021/05/09 01:53:52;;;;;;;8.87;4.57;;;15.70;1.00;;;;;;5073802;28;20165;-78
2021/05/09 01:56:18;;;;;;;6.03;3.10;;;15.80;1.00;;;;;;5071961;28;20184;-80
2021/05/09 01:58:44;;;;;;;7.83;5.27;;;16.00;1.00;;;;;;5073025;28;20174;-80
2021/05/09 02:01:10;;;;;;;7.93;4.20;;;15.80;1.00;;;;;;5072312;28;20161;-80
2021/05/09 02:03:36;;;;;;;6.40;3.60;;;15.80;1.00;;;;;;5072962;28;20656;-78
2021/05/09 02:06:08;;;;;;;7.87;4.50;;;15.80;1.00;;;;;;5072935;28;20738;-81
2021/05/09 02:08:34;;;;;;;6.63;3.60;;;15.80;1.00;;;;;;5073150;28;20171;-80
2021/05/09 02:10:59;;;;;;;6.77;3.70;;;15.90;1.00;;;;;;5071589;28;20179;-81
2021/05/09 02:13:25;;;;;;;7.83;3.30;;;15.90;1.00;;;;;;5072752;28;20170;-82
2021/05/09 02:15:51;;;;;;;6.73;3.50;;;15.80;1.00;;;;;;5072944;28;20254;-81
2021/05/09 02:18:16;;;;;;;7.47;3.43;;;16.00;1.00;;;;;;5072631;28;20268;-79
2021/05/09 02:20:42;;;;;;;5.33;3.33;;;16.10;1.00;;;;;;5072690;28;20210;-81
2021/05/09 02:23:07;;;;;;;6.97;4.00;;;16.00;1.00;;;;;;5072435;28;20164;-81
2021/05/09 02:25:33;;;;;;;6.83;3.80;;;16.10;1.00;;;;;;5071364;28;20196;-79
2021/05/09 02:27:59;;;;;;;6.07;3.70;;;16.10;1.00;;;;;;5072646;28;20173;-79
2021/05/09 02:30:24;;;;;;;8.23;3.97;;;16.00;1.00;;;;;;5072732;28;20270;-77
2021/05/09 02:32:50;;;;;;;7.27;3.63;;;15.80;1.00;;;;;;5072518;28;20208;-80
2021/05/09 02:35:16;;;;;;;6.53;3.97;;;15.70;1.00;;;;;;5072794;28;20178;-80
2021/05/09 02:37:41;;;;;;;8.30;4.13;;;15.50;1.00;;;;;;5072401;28;20194;-80
2021/05/09 02:40:08;;;;;;;8.07;4.17;;;15.60;1.00;;;;;;5072881;28;20175;-78
2021/05/09 02:42:34;;;;;;;8.83;4.23;;;15.60;1.00;;;;;;5072658;28;20182;-79
2021/05/09 02:45:00;;;;;;;7.47;3.93;;;15.50;1.00;;;;;;5073026;28;20222;-79
2021/05/09 02:47:28;;;;;;;7.30;3.83;;;15.60;1.00;;;;;;5072446;28;20665;-80
2021/05/09 02:49:56;;;;;;;6.37;3.50;;;15.50;1.00;;;;;;5071153;28;20192;-81
2021/05/09 02:52:21;;;;;;;5.77;3.73;;;15.40;1.00;;;;;;5072089;28;20173;-80
2021/05/09 02:54:47;;;;;;;7.43;4.13;;;15.40;1.00;;;;;;5072391;28;20224;-80
2021/05/09 02:57:13;;;;;;;8.33;4.97;;;15.60;1.00;;;;;;5072356;28;20229;-80
2021/05/09 02:59:38;;;;;;;5.97;3.53;;;15.50;1.00;;;;;;5072380;28;20263;-80
2021/05/09 03:02:04;;;;;;;7.23;4.67;;;15.50;1.00;;;;;;5072329;28;20183;-80
2021/05/09 03:04:29;;;;;;;8.87;3.83;;;15.50;1.00;;;;;;5072316;28;20174;-81
2021/05/09 03:06:55;;;;;;;7.53;3.60;;;15.40;1.00;;;;;;5072099;28;20224;-81
2021/05/09 03:09:20;;;;;;;5.70;3.77;;;15.30;1.00;;;;;;5070909;28;20172;-80
2021/05/09 03:11:46;;;;;;;7.77;3.97;;;15.30;1.00;;;;;;5070982;28;20224;-82
2021/05/09 03:14:12;;;;;;;8.33;3.67;;;15.30;1.00;;;;;;5072865;28;20208;-79
2021/05/09 03:16:37;;;;;;;9.37;3.60;;;15.30;1.00;;;;;;5076003;28;20179;-80
2021/05/09 03:19:03;;;;;;;6.93;3.77;;;15.30;1.00;;;;;;5075923;28;20179;-79
2021/05/09 03:21:29;;;;;;;6.80;3.63;;;15.40;1.00;;;;;;5075610;28;20172;-80
2021/05/09 03:23:54;;;;;;;7.70;3.87;;;15.50;1.00;;;;;;5075781;28;20168;-81
2021/05/09 03:26:20;;;;;;;8.43;3.80;;;15.40;1.00;;;;;;5075654;28;20205;-79
2021/05/09 03:28:46;;;;;;;5.80;3.80;;;15.40;1.00;;;;;;5075818;28;20627;-81
2021/05/09 03:31:11;;;;;;;6.43;3.67;;;15.30;1.00;;;;;;5076061;28;20674;-79
2021/05/09 03:33:37;;;;;;;6.97;3.60;;;15.30;1.00;;;;;;5075392;28;20194;-79
2021/05/09 03:36:03;;;;;;;6.87;3.70;;;15.30;1.00;;;;;;5075675;28;20187;-79
2021/05/09 03:38:28;;;;;;;5.70;3.37;;;15.40;1.00;;;;;;5075638;28;20179;-80
2021/05/09 03:40:54;;;;;;;7.33;3.47;;;15.40;1.00;;;;;;5074313;28;20181;-80
2021/05/09 03:43:20;;;;;;;3.93;3.03;;;15.50;1.00;;;;;;5075371;28;20174;-79
2021/05/09 03:45:45;;;;;;;6.53;2.97;;;15.50;1.00;;;;;;5075311;28;20231;-80
2021/05/09 03:48:11;;;;;;;5.23;3.20;;;15.80;1.00;;;;;;5075507;28;20176;-82
2021/05/09 03:50:36;;;;;;;5.33;3.13;;;15.80;1.00;;;;;;5075302;28;20173;-81
2021/05/09 03:53:02;;;;;;;5.17;3.03;;;15.80;1.00;;;;;;5074070;28;20180;-81
2021/05/09 03:55:28;;;;;;;5.20;3.27;;;15.80;1.00;;;;;;5075112;28;20173;-81
2021/05/09 03:57:53;;;;;;;5.03;3.10;;;15.80;1.00;;;;;;5075358;28;20172;-80
2021/05/09 04:00:19;;;;;;;7.33;3.67;;;15.80;1.00;;;;;;5075145;28;20171;-82
2021/05/09 04:02:45;;;;;;;6.43;3.23;;;15.80;1.00;;;;;;5074732;28;20196;-79
2021/05/09 04:05:11;;;;;;;7.13;3.23;;;15.80;1.00;;;;;;5075262;28;20655;-78
2021/05/09 04:07:37;;;;;;;5.70;3.57;;;15.80;1.00;;;;;;5074993;28;20206;-82
2021/05/09 04:10:04;;;;;;;4.87;3.10;;;15.80;1.00;;;;;;5074953;28;20169;-80
2021/05/09 04:12:30;;;;;;;6.20;3.10;;;15.80;1.00;;;;;;5074706;28;20173;-79
2021/05/09 04:14:56;;;;;;;6.20;3.20;;;15.80;1.00;;;;;;5074863;28;20190;-80
2021/05/09 04:17:21;;;;;;;6.43;3.03;;;16.00;1.00;;;;;;5074792;28;20175;-79
2021/05/09 04:19:47;;;;;;;4.97;3.07;;;16.10;1.00;;;;;;5074841;28;20530;-79
2021/05/09 04:22:12;;;;;;;5.00;3.00;;;16.20;1.00;;;;;;5074847;28;20179;-81
2021/05/09 04:24:38;;;;;;;6.37;3.17;;;16.00;1.00;;;;;;5072278;28;20176;-81
2021/05/09 04:27:04;;;;;;;5.23;3.23;;;16.20;1.00;;;;;;5074835;28;20214;-81
2021/05/09 04:29:30;;;;;;;4.83;2.90;;;16.20;1.00;;;;;;5074600;28;20165;-80
2021/05/09 04:31:55;;;;;;;5.27;2.87;;;16.30;1.00;;;;;;5074712;28;20254;-78
2021/05/09 04:34:21;;;;;;;4.90;2.80;;;16.30;1.00;;;;;;5074692;28;20184;-79
2021/05/09 04:36:47;;;;;;;5.23;3.23;;;16.30;1.00;;;;;;5074600;28;20172;-81
2021/05/09 04:39:12;;;;;;;4.73;2.80;;;16.40;99.90;;;;;;5073582;28;20185;-80
2021/05/09 04:41:38;;;;;;;5.10;2.80;;;16.50;99.90;;;;;;5072901;28;20205;-80
2021/05/09 04:44:04;;;;;;;6.43;2.87;;;16.60;99.90;;;;;;5074350;28;20161;-81
2021/05/09 04:46:30;;;;;;;4.40;2.93;;;16.50;99.90;;;;;;5073954;28;20205;-81
2021/05/09 04:48:55;;;;;;;5.10;3.07;;;16.50;99.90;;;;;;5073240;28;20656;-81
2021/05/09 04:51:21;;;;;;;5.97;2.30;;;16.50;99.90;;;;;;5074344;28;20176;-79
2021/05/09 04:53:46;;;;;;;6.10;3.30;;;16.60;99.90;;;;;;5074313;28;20164;-80
2021/05/09 04:56:12;;;;;;;5.27;2.43;;;16.60;99.90;;;;;;5074204;28;20172;-81
2021/05/09 04:58:39;;;;;;;4.03;2.50;;;16.60;99.90;;;;;;5074076;28;20674;-80
2021/05/09 05:01:08;;;;;;;6.03;2.77;;;16.80;99.90;;;;;;5073631;28;20173;-79
2021/05/09 05:03:34;;;;;;;4.63;2.50;;;16.90;99.90;;;;;;5072337;28;20229;-82
2021/05/09 05:06:00;;;;;;;4.17;2.40;;;17.10;99.90;;;;;;5073699;28;20282;-79
2021/05/09 05:08:27;;;;;;;5.17;2.43;;;17.00;99.90;;;;;;5073773;28;20168;-79
2021/05/09 05:10:53;;;;;;;3.50;2.33;;;17.20;99.90;;;;;;5073757;28;20165;-80
2021/05/09 05:13:24;;;;;;;6.27;2.20;;;17.40;1.00;;;;;;5072433;28;20616;-80
2021/05/09 05:15:54;;;;;;;3.27;2.37;;;17.60;1.00;;;;;;5073375;28;20258;-78
2021/05/09 05:18:20;;;;;;;7.57;2.33;;;17.60;1.00;;;;;;5073807;28;20278;-78
2021/05/09 05:20:47;;;;;;;5.97;2.17;;;17.60;1.00;;;;;;5073566;28;20168;-80
2021/05/09 05:23:13;;;;;;;4.90;2.40;;;17.70;1.00;;;;;;5073551;28;20538;-80
2021/05/09 05:25:39;;;;;;;4.50;2.30;;;17.70;1.00;;;;;;5073102;28;20204;-81
2021/05/09 05:28:05;;;;;;;3.33;2.00;;;17.80;1.00;;;;;;5073311;28;20663;-79
2021/05/09 05:30:32;;;;;;;4.20;2.50;;;17.70;1.00;;;;;;5072944;28;20196;-82
2021/05/09 05:32:58;;;;;;;3.37;2.50;;;18.00;1.00;;;;;;5073134;28;20592;-79
2021/05/09 05:35:24;;;;;;;5.13;2.30;;;18.10;99.90;;;;;;5073024;28;20172;-80
2021/05/09 05:37:57;;;;;;;4.23;2.50;;;18.30;92.40;;;;;;5072691;28;20479;-80
2021/05/09 05:40:24;;;;;;;3.00;2.13;;;18.50;1.00;;;;;;5073161;28;20600;-80
2021/05/09 05:42:51;;;;;;;3.87;2.00;;;18.70;1.00;;;;;;5071574;28;20188;-81
2021/05/09 05:45:17;;;;;;;3.90;2.10;;;18.90;99.90;;;;;;5072994;28;20168;-80
2021/05/09 05:47:43;;;;;;;4.10;2.13;;;19.00;99.90;;;;;;5073005;28;20172;-80
2021/05/09 05:50:09;;;;;;;5.40;2.50;;;18.90;99.90;;;;;;5073027;28;20203;-79
2021/05/09 05:52:35;;;;;;;4.33;2.13;;;19.10;1.00;;;;;;5072866;28;20172;-79
2021/05/09 05:55:01;;;;;;;3.83;2.07;;;19.10;1.00;;;;;;5071676;28;20198;-80
2021/05/09 05:57:27;;;;;;;4.10;2.07;;;19.10;1.00;;;;;;5071702;28;20493;-80
2021/05/09 05:59:52;;;;;;;3.90;2.27;;;19.20;1.00;;;;;;5072541;28;20177;-80
2021/05/09 06:02:18;;;;;;;3.70;2.10;;;19.30;99.90;;;;;;5072645;28;20222;-79
2021/05/09 06:04:44;;;;;;;2.97;1.80;;;19.30;99.90;;;;;;5071477;28;20634;-80
2021/05/09 06:07:12;;;;;;;3.13;1.87;;;19.20;99.90;;;;;;5071293;28;20214;-81
2021/05/09 06:09:38;;;;;;;4.50;1.97;;;19.10;1.00;;;;;;5072902;28;20188;-80
2021/05/09 06:12:04;;;;;;;4.93;1.83;;;19.10;1.00;;;;;;5072884;28;20723;-80
2021/05/09 06:14:30;;;;;;;5.87;2.20;;;18.90;1.00;;;;;;5072589;28;20625;-81
2021/05/09 06:16:56;;;;;;;5.70;2.00;;;18.80;1.00;;;;;;5071303;28;20226;-79
2021/05/09 06:19:21;;;;;;;4.30;2.20;;;18.90;99.90;;;;;;5072756;28;20168;-78
2021/05/09 06:21:47;;;;;;;4.53;2.27;;;18.90;1.00;;;;;;5072479;28;20175;-80
2021/05/09 06:24:13;;;;;;;3.43;1.77;;;18.90;1.00;;;;;;5072632;28;20221;-81
2021/05/09 06:26:38;;;;;;;3.63;2.10;;;19.10;1.00;;;;;;5071303;28;20215;-79
2021/05/09 06:29:05;;;;;;;4.83;2.10;;;19.10;1.00;;;;;;5072227;28;20169;-79
2021/05/09 06:31:30;;;;;;;4.70;2.27;;;19.20;1.00;;;;;;5072492;28;20181;-79
2021/05/09 06:33:56;;;;;;;3.73;2.10;;;19.30;99.90;;;;;;5072473;28;20562;-79
2021/05/09 06:36:22;;;;;;;4.20;2.27;;;19.30;99.90;;;;;;5071341;28;20180;-79
2021/05/09 06:38:48;;;;;;;4.93;2.17;;;19.30;99.90;;;;;;5072455;28;20172;-81
2021/05/09 06:41:14;;;;;;;3.73;2.23;;;19.40;99.90;;;;;;5072392;28;20230;-81
2021/05/09 06:43:39;;;;;;;4.67;2.13;;;19.40;1.00;;;;;;5071703;28;20646;-79
2021/05/09 06:46:05;;;;;;;3.20;2.00;;;19.60;99.90;;;;;;5072349;28;20209;-79
2021/05/09 06:48:30;;;;;;;4.57;2.27;;;19.60;99.90;;;;;;5075095;28;20652;-79
2021/05/09 06:50:59;;;;;;;5.07;2.10;;;19.70;1.00;;;;;;5076560;28;20259;-78
2021/05/09 06:53:25;;;;;;;3.63;1.80;;;20.00;1.00;;;;;;5076402;28;20668;-78
2021/05/09 06:55:51;;;;;;;3.90;1.80;;;20.20;1.00;;;;;;5076304;28;20198;-78
2021/05/09 06:58:22;;;;;;;4.80;1.80;;;20.10;1.00;;;;;;5075905;28;20240;-80
2021/05/09 07:00:49;;;;;;;4.20;2.17;;;20.30;1.00;;;;;;5076254;28;20653;-79
2021/05/09 07:03:15;;;;;;;2.97;1.73;;;20.50;99.90;;;;;;5074821;28;20724;-79
2021/05/09 07:05:41;;;;;;;3.83;2.13;;;20.60;99.90;;;;;;5076291;28;20205;-79
2021/05/09 07:08:07;;;;;;;3.23;2.10;;;20.50;1.00;;;;;;5074652;28;20209;-81
2021/05/09 07:10:35;;;;;;;6.13;2.40;;;20.60;99.90;;;;;;5076305;28;20210;-78
2021/05/09 07:13:00;;;;;;;3.80;2.00;;;20.70;99.90;;;;;;5074321;28;20228;-79
2021/05/09 07:15:39;;;;;;;4.63;2.13;;;20.80;1.00;;;;;;5075848;28;20648;-79
2021/05/09 07:18:09;;;;;;;4.23;1.83;;;20.70;7.20;;;;;;5074307;28;20184;-79
2021/05/09 07:20:38;;;;;;;3.60;1.90;;;20.70;99.90;;;;;;5075966;28;20173;-78
2021/05/09 07:23:05;;;;;;;4.40;2.00;;;20.60;1.00;;;;;;5074238;28;20579;-79
2021/05/09 07:25:32;;;;;;;4.60;2.13;;;20.50;99.90;;;;;;5075630;28;20173;-80
2021/05/09 07:28:12;;;;;;;4.67;1.90;;;20.60;4.90;;;;;;5075097;28;20252;-79
2021/05/09 07:30:43;;;;;;;5.67;2.20;;;20.60;1.00;;;;;;5075542;28;20169;-81
2021/05/09 07:33:10;;;;;;;4.57;1.93;;;20.60;99.90;;;;;;5075408;28;20188;-80
2021/05/09 07:35:36;;;;;;;4.40;2.40;;;20.60;99.90;;;;;;5075639;28;20180;-78
2021/05/09 07:38:07;;;;;;;2.97;1.87;;;20.50;1.00;;;;;;5075242;28;20168;-78
2021/05/09 07:40:34;;;;;;;3.70;2.40;;;20.70;94.20;;;;;;5074907;28;20166;-78
2021/05/09 07:42:59;;;;;;;5.43;2.17;;;20.60;99.90;;;;;;5075398;28;20176;-81
2021/05/09 07:45:25;;;;;;;3.23;2.20;;;20.60;1.00;;;;;;5075171;28;20161;-79
2021/05/09 07:47:51;;;;;;;3.43;1.93;;;20.60;13.40;;;;;;5073990;28;20173;-80
2021/05/09 07:50:19;;;;;;;3.57;2.20;;;20.60;1.00;;;;;;5075022;28;20206;-79
2021/05/09 07:52:46;;;;;;;3.23;2.10;;;20.60;1.00;;;;;;5075237;28;20189;-79
2021/05/09 07:55:13;;;;;;;2.40;1.77;;;20.70;1.00;;;;;;5074804;28;20166;-79
2021/05/09 07:57:39;;;;;;;5.87;2.33;;;20.50;99.90;;;;;;5075210;28;20731;-82
2021/05/09 08:00:07;;;;;;;4.87;2.40;;;20.50;99.90;;;;;;5072466;28;20258;-81
2021/05/09 08:02:33;;;;;;;4.87;2.37;;;20.60;99.90;;;;;;5074987;28;20192;-81
2021/05/09 08:04:59;;;;;;;4.60;2.03;;;20.50;99.90;;;;;;5074732;28;20252;-81
2021/05/09 08:07:25;;;;;;;6.73;2.50;;;20.60;99.90;;;;;;5074608;28;20212;-81
2021/05/09 08:09:50;;;;;;;4.03;2.40;;;20.70;1.00;;;;;;5072560;28;20500;-82
2021/05/09 08:12:16;;;;;;;4.03;2.40;;;20.90;99.90;;;;;;5073016;28;20188;-81
2021/05/09 08:14:42;;;;;;;3.43;1.80;;;20.70;1.00;;;;;;5073126;28;20202;-82
2021/05/09 08:17:07;;;;;;;3.97;2.33;;;20.90;92.60;;;;;;5074598;28;20177;-81
2021/05/09 08:19:33;;;;;;;4.47;2.20;;;20.90;99.90;;;;;;5074494;28;20180;-80
2021/05/09 08:22:03;;;;;;;3.40;2.23;;;20.90;1.00;;;;;;5074633;28;20183;-82
2021/05/09 08:24:30;;;;;;;4.93;2.87;;;20.90;1.00;;;;;;5074292;28;20193;-82
2021/05/09 08:26:56;;;;;;;3.03;2.10;;;20.90;1.00;;;;;;5074531;28;20304;-80
2021/05/09 08:29:22;;;;;;;3.27;2.20;;;20.80;1.00;;;;;;5074368;28;20703;-80
2021/05/09 08:31:48;;;;;;;3.33;2.07;;;20.80;99.90;;;;;;5074417;28;20175;-80
2021/05/09 08:34:14;;;;;;;4.40;2.23;;;21.00;1.00;;;;;;5074375;28;20194;-81
2021/05/09 08:36:39;;;;;;;4.80;2.43;;;21.00;1.00;;;;;;5074387;28;20198;-81
2021/05/09 08:39:05;;;;;;;4.50;2.20;;;21.00;1.00;;;;;;5073939;28;20621;-79
2021/05/09 08:41:33;;;;;;;3.60;2.27;;;20.90;42.80;;;;;;5074261;28;20199;-80
2021/05/09 08:43:59;;;;;;;4.67;2.50;;;21.00;75.80;;;;;;5072848;28;20184;-80
2021/05/09 08:46:26;;;;;;;3.93;2.40;;;21.00;1.00;;;;;;5074203;28;20211;-81
2021/05/09 08:48:54;;;;;;;4.97;2.90;;;21.30;99.90;;;;;;5072881;28;20187;-80
2021/05/09 08:51:21;;;;;;;4.17;2.47;;;21.40;99.90;;;;;;5073903;28;20175;-80
2021/05/09 08:53:48;;;;;;;4.30;2.20;;;21.40;99.90;;;;;;5072543;28;20190;-82
2021/05/09 08:56:14;;;;;;;6.23;2.10;;;21.30;1.00;;;;;;5074010;28;20216;-80
2021/05/09 08:58:40;;;;;;;4.20;2.37;;;21.50;1.00;;;;;;5072634;28;20172;-81
2021/05/09 09:01:05;;;;;;;4.20;2.60;;;21.50;99.90;;;;;;5073367;28;20191;-82
2021/05/09 09:03:33;;;;;;;3.90;3.03;;;21.40;1.00;;;;;;5072629;28;20620;-81
2021/05/09 09:06:00;;;;;;;4.67;2.63;;;21.40;1.00;;;;;;5073705;28;20204;-82
2021/05/09 09:08:26;;;;;;;6.03;2.20;;;21.30;1.00;;;;;;5073244;28;20203;-81
2021/05/09 09:10:53;;;;;;;5.57;2.80;;;21.20;52.70;;;;;;5073734;28;20192;-81
2021/05/09 09:13:19;;;;;;;4.93;2.53;;;21.10;97.20;;;;;;5073562;28;20175;-84
2021/05/09 09:15:56;;;;;;;3.97;2.33;;;20.90;1.00;;;;;;5073557;28;20653;-81
2021/05/09 09:18:35;;;;;;;2.77;2.47;;;20.70;99.90;;;;;;5073270;28;20216;-81
2021/05/09 09:21:26;;;;;;;4.30;2.40;;;20.70;99.90;;;;;;5072035;28;20173;-80
2021/05/09 09:24:10;;;;;;;5.60;2.40;;;20.70;1.00;;;;;;5073208;28;20176;-82
2021/05/09 09:26:46;;;;;;;3.97;2.60;;;20.60;99.90;;;;;;5073296;28;20208;-80
2021/05/09 09:29:19;;;;;;;5.13;2.70;;;20.70;1.00;;;;;;5073426;28;20185;-82
2021/05/09 09:31:50;;;;;;;4.67;2.63;;;20.80;1.00;;;;;;5073300;28;20339;-80
2021/05/09 09:34:16;;;;;;;4.73;3.17;;;20.80;99.90;;;;;;5074828;28;20707;-80
2021/05/09 09:36:42;;;;;;;6.27;2.67;;;20.80;1.00;;;;;;5079056;28;20171;-83
2021/05/09 09:39:10;;;;;;;4.90;2.90;;;21.10;1.00;;;;;;5073058;28;20189;-82
2021/05/09 09:41:47;;;;;;;5.10;2.87;;;21.30;1.00;;;;;;5072961;28;20303;-81
2021/05/09 09:44:15;;;;;;;4.17;3.00;;;21.50;99.90;;;;;;5072952;28;20239;-81
2021/05/09 09:46:49;;;;;;;4.17;2.70;;;21.80;99.90;;;;;;5072717;28;20263;-81
2021/05/09 09:49:38;;;;;;;5.07;2.50;;;22.00;99.90;;;;;;5073017;28;20163;-80
2021/05/09 09:52:06;;;;;;;4.70;2.67;;;22.10;1.00;;;;;;5071840;28;20184;-82
2021/05/09 09:54:44;;;;;;;3.53;2.50;;;22.00;65.00;;;;;;5072832;28;20558;-78
2021/05/09 09:57:24;;;;;;;4.27;2.47;;;22.10;1.00;;;;;;5072915;28;20175;-82
2021/05/09 10:00:08;;;;;;;5.67;2.30;;;22.20;1.00;;;;;;5073210;28;20183;-79
2021/05/09 10:02:34;;;;;;;4.37;2.20;;;22.20;99.90;;;;;;5072668;28;20198;-82
2021/05/09 10:05:00;;;;;;;4.20;2.30;;;22.30;99.90;;;;;;5072423;28;20244;-81
2021/05/09 10:07:27;;;;;;;3.73;2.00;;;22.40;46.10;;;;;;5070691;28;20219;-82
2021/05/09 10:09:56;;;;;;;4.17;2.03;;;22.50;1.00;;;;;;5072382;28;20247;-79
2021/05/09 10:12:23;;;;;;;6.97;2.50;;;22.50;1.00;;;;;;5072350;28;20171;-83
2021/05/09 10:14:50;;;;;;;3.67;2.50;;;22.40;1.00;;;;;;5072449;28;20175;-81
2021/05/09 10:17:16;;;;;;;4.23;2.40;;;22.40;1.00;;;;;;5072142;28;20234;-81
2021/05/09 10:19:43;;;;;;;7.13;2.37;;;22.60;1.00;;;;;;5072332;28;20254;-82
2021/05/09 10:22:27;;;;;;;3.03;2.00;;;22.80;1.00;;;;;;5071378;28;20314;-81
2021/05/09 10:24:53;;;;;;;3.87;2.20;;;22.70;99.90;;;;;;5072583;28;20262;-80
2021/05/09 10:27:18;;;;;;;4.47;2.60;;;22.50;1.00;;;;;;5072234;28;20290;-81
2021/05/09 10:29:45;;;;;;;6.10;2.80;;;22.30;99.90;;;;;;5070977;28;20255;-81
2021/05/09 10:32:20;;;;;;;5.43;2.20;;;22.30;99.90;;;;;;5071081;28;20233;-82
2021/05/09 10:35:01;;;;;;;4.03;2.33;;;22.20;99.90;;;;;;5072118;28;20297;-80
2021/05/09 10:40:35;;;;;;;5.30;2.50;;;22.10;1.00;;;;;;5072267;28;20251;-80
2021/05/09 10:43:03;;;;;;;4.17;2.50;;;21.90;99.90;;;;;;5071913;28;20204;-83
2021/05/09 10:48:19;;;;;;;5.47;3.03;;;21.70;99.90;;;;;;5072433;28;20625;-82
2021/05/09 10:50:46;;;;;;;6.47;3.00;;;21.50;1.00;;;;;;5071798;28;20249;-81
2021/05/09 10:53:30;;;;;;;5.10;2.83;;;21.40;99.90;;;;;;5072231;28;20345;-82
2021/05/09 10:55:57;;;;;;;5.67;3.23;;;21.30;45.60;;;;;;5070738;28;20172;-80
2021/05/09 10:58:41;;;;;;;4.47;2.87;;;21.20;99.90;;;;;;5071721;28;20180;-81
2021/05/09 11:01:06;;;;;;;6.53;3.00;;;21.10;99.90;;;;;;5071785;28;20182;-82
2021/05/09 11:03:35;;;;;;;6.60;3.30;;;21.10;1.00;;;;;;5071569;28;20191;-82
2021/05/09 11:06:03;;;;;;;4.97;3.80;;;21.20;1.00;;;;;;5071740;28;20360;-80
2021/05/09 11:08:48;;;;;;;4.70;3.20;;;21.20;1.00;;;;;;5070419;28;20578;-83
2021/05/09 11:11:26;;;;;;;6.07;3.07;;;21.10;79.30;;;;;;5071639;28;20662;-84
2021/05/09 11:14:01;;;;;;;7.67;3.43;;;21.20;99.90;;;;;;5070263;28;20172;-82
2021/05/09 11:16:57;;;;;;;5.47;3.40;;;21.40;1.00;;;;;;5072169;28;20163;-82
2021/05/09 11:19:26;;;;;;;5.20;3.03;;;21.60;1.00;;;;;;5071315;28;20170;-82
2021/05/09 11:21:56;;;;;;;6.23;2.90;;;21.70;99.90;;;;;;5072633;28;20567;-82
2021/05/09 11:24:24;;;;;;;6.13;3.13;;;21.60;99.90;;;;;;5071788;28;20170;-82
2021/05/09 11:26:57;;;;;;;4.13;3.00;;;21.90;99.90;;;;;;5070943;28;20206;-80
2021/05/09 11:29:28;;;;;;;4.97;3.20;;;22.00;1.00;;;;;;5072456;28;20671;-81
2021/05/09 11:31:55;;;;;;;5.37;3.33;;;22.20;99.90;;;;;;5072237;28;20175;-82
2021/05/09 11:34:23;;;;;;;5.90;3.50;;;22.30;99.90;;;;;;5072214;28;20187;-81
2021/05/09 11:36:51;;;;;;;5.63;3.57;;;22.40;99.90;;;;;;5075350;28;20250;-82
2021/05/09 11:39:20;;;;;;;5.33;2.90;;;22.60;99.90;;;;;;5076398;28;20172;-82
2021/05/09 11:41:59;;;;;;;6.57;2.50;;;22.70;95.90;;;;;;5075733;28;20168;-80
2021/05/09 11:44:36;;;;;;;5.13;2.60;;;22.80;1.00;;;;;;5074789;28;20194;-83
2021/05/09 11:47:06;;;;;;;4.20;2.70;;;22.80;8.40;;;;;;5075566;28;20206;-82
2021/05/09 11:49:34;;;;;;;5.93;2.60;;;22.80;1.00;;;;;;5078355;28;20168;-80
2021/05/09 11:52:03;;;;;;;6.93;2.77;;;22.90;99.90;;;;;;5085055;28;20258;-81
2021/05/09 11:54:31;;;;;;;4.03;2.67;;;22.90;1.00;;;;;;5087522;28;20189;-81
2021/05/09 11:56:59;;;;;;;6.00;2.63;;;22.90;1.00;;;;;;5089621;28;20195;-82
2021/05/09 11:59:45;;;;;;;5.23;2.83;;;22.90;99.90;;;;;;5089889;28;20243;-83
2021/05/09 12:02:11;;;;;;;4.93;2.63;;;23.10;99.90;;;;;;5087110;28;20157;-78
2021/05/09 12:04:40;;;;;;;5.10;2.63;;;23.30;99.90;;;;;;5088863;28;20265;-81
2021/05/09 12:07:08;;;;;;;4.60;2.73;;;23.30;1.00;;;;;;5081362;28;20249;-80
2021/05/09 12:09:36;;;;;;;3.83;2.60;;;23.40;99.90;;;;;;5078005;28;20278;-82
2021/05/09 12:12:02;;;;;;;5.50;2.53;;;23.50;65.70;;;;;;5074420;28;20990;-81
2021/05/09 12:14:29;;;;;;;3.90;2.30;;;23.60;1.00;;;;;;5074612;28;20200;-81
2021/05/09 12:16:55;;;;;;;4.07;2.57;;;23.80;1.00;;;;;;5074256;28;20162;-79
2021/05/09 12:19:31;;;;;;;4.80;2.80;;;23.80;1.00;;;;;;5074532;28;20169;-83
2021/05/09 12:22:05;;;;;;;5.80;2.70;;;24.10;99.90;;;;;;5074382;28;20169;-80
2021/05/09 12:24:56;;;;;;;7.53;2.80;;;24.00;1.00;;;;;;5072724;28;20200;-82
2021/05/09 12:27:25;;;;;;;3.87;2.50;;;24.20;1.00;;;;;;5072622;28;20300;-80
2021/05/09 12:29:56;;;;;;;6.07;2.83;;;24.20;1.00;;;;;;5073561;28;20630;-83
2021/05/09 12:32:33;;;;;;;4.87;2.33;;;24.20;99.90;;;;;;5072458;28;20205;-83
2021/05/09 12:35:06;;;;;;;4.40;2.57;;;24.10;99.90;;;;;;5074135;28;20233;-84
2021/05/09 12:37:49;;;;;;;5.97;2.70;;;24.10;1.00;;;;;;5072069;28;20173;-82
2021/05/09 12:40:37;;;;;;;5.13;2.57;;;24.20;1.00;;;;;;5072055;28;20670;-83
2021/05/09 12:43:05;;;;;;;4.77;2.63;;;24.20;99.90;;;;;;5072290;28;20290;-82
2021/05/09 12:45:33;;;;;;;6.30;2.70;;;24.30;99.90;;;;;;5073110;28;20623;-80
2021/05/09 12:48:22;;;;;;;6.40;2.90;;;24.30;99.90;;;;;;5073604;28;20189;-83
2021/05/09 12:50:49;;;;;;;5.93;3.00;;;24.40;99.90;;;;;;5073026;28;20750;-81
2021/05/09 12:53:39;;;;;;;4.37;2.87;;;24.40;99.90;;;;;;5073546;28;20166;-82
2021/05/09 12:56:27;;;;;;;4.77;2.20;;;24.40;99.90;;;;;;5073161;28;20198;-80
2021/05/09 12:59:17;;;;;;;4.50;2.50;;;24.40;99.90;;;;;;5073083;28;20170;-82
2021/05/09 13:01:45;;;;;;;4.23;2.77;;;24.30;90.70;;;;;;5071648;28;20620;-81
2021/05/09 13:04:34;;;;;;;4.33;2.40;;;24.30;55.60;;;;;;5073103;28;20670;-82